Coral Topaz — 3ELB7 — position and weather

sailwx.info

Track history (hours):
 
Tides and Currents Weather Stations Pressure Air Temp Water Temp Dewpoint Dewpoint Depression Visibility Wind Speed Wind Dir Waves Ship Positions

Coral Topaz

Last reported at 2014-Nov-01 11:25 UTC. Time now 2014-Nov-01 13:26 UTC.
Position S 33°08' E 152°37'.

Length 225 m; draft 7.3 m.

Type: Ship. MMSI: 372904000.

Date/timePositionNaut miles runAvg speedWind from/ knotsBaromVisibWave heightAir tempDewpointWater temp
2014-Nov-01 11:25S 33°08' E 152°37'0 0.4
2014-Nov-01 10:25S 33°07' E 152°36'1 0.9
2014-Nov-01 09:31S 33°07' E 152°36'1 1.0
2014-Nov-01 08:31S 33°06' E 152°36'1 0.7
2014-Nov-01 06:33S 33°04' E 152°36'1211.7
2014-Nov-01 05:33S 33°15' E 152°39'1313.4
2014-Nov-01 04:33S 33°27' E 152°46'1010.3
2014-Nov-01 03:33S 33°37' E 152°51'1 1.2
2014-Nov-01 02:29S 33°36' E 152°50'1 1.2
2014-Nov-01 01:26S 33°35' E 152°48'4 1.1
2014-Oct-31 21:26S 33°34' E 152°44'1 1.0
2014-Oct-31 20:32S 33°33' E 152°43'4 1.3
2014-Oct-31 17:26S 33°30' E 152°40'2 1.8
2014-Oct-31 16:32S 33°29' E 152°39'2 2.1
2014-Oct-31 15:32S 33°27' E 152°38'10 2.4
2014-Oct-31 11:20S 33°17' E 152°35'7 9.1
2014-Oct-31 10:33S 33°11' E 152°31'1212.2
2014-Oct-31 09:33S 33°00' E 152°24'1312.8
2014-Oct-31 08:33S 32°48' E 152°18'1414.3
2014-Oct-31 07:34S 32°39' E 152°31'1414.3
2014-Oct-31 06:34S 32°29' E 152°43'1513.8
2014-Oct-31 05:30S 32°16' E 152°51'1313.7
2014-Oct-31 04:33S 32°03' E 152°55'1313.5
2014-Oct-31 03:33S 31°51' E 153°01'1413.5
2014-Oct-31 02:33S 31°38' E 153°06'19113.5
2014-Oct-30 12:25S 28°30' E 153°46'1414.9
2014-Oct-30 11:28S 28°16' E 153°45'1314.4
2014-Oct-30 10:33S 28°03' E 153°43'1413.8
2014-Oct-30 09:34S 27°49' E 153°41'1414.1
2014-Oct-30 08:34S 27°35' E 153°42'1515.5
2014-Oct-30 07:34S 27°20' E 153°44'1514.8
2014-Oct-30 06:33S 27°05' E 153°45'1414.4
2014-Oct-30 05:33S 26°51' E 153°47'1413.9
2014-Oct-30 04:34S 26°37' E 153°49'1413.6
2014-Oct-30 03:32S 26°23' E 153°51'1313.6
2014-Oct-30 02:33S 26°10' E 153°53'1615.2
2014-Oct-30 01:31S 25°54' E 153°55'2914.7
2014-Oct-29 23:31S 25°25' E 153°58'1714.3
2014-Oct-29 22:21S 25°09' E 154°01'  
Track history (hours):
 
Tides and Currents Weather Stations Pressure Air Temp Water Temp Dewpoint Dewpoint Depression Visibility Wind Speed Wind Dir Waves Ship Positions

Coral Topaz

Last reported at 2014-Nov-01 11:25 UTC. Time now 2014-Nov-01 13:26 UTC.
Position S 33°08' E 152°37'.

Length 225 m; draft 7.3 m.

Type: Ship. MMSI: 372904000.

Date/timePositionNaut miles runAvg speedWind from/ knotsBaromVisibWave heightAir tempDewpointWater temp
2014-Nov-01 11:25S 33°08' E 152°37'0 0.4
2014-Nov-01 10:25S 33°07' E 152°36'1 0.9
2014-Nov-01 09:31S 33°07' E 152°36'1 1.0
2014-Nov-01 08:31S 33°06' E 152°36'1 0.7
2014-Nov-01 06:33S 33°04' E 152°36'1211.7
2014-Nov-01 05:33S 33°15' E 152°39'1313.4
2014-Nov-01 04:33S 33°27' E 152°46'1010.3
2014-Nov-01 03:33S 33°37' E 152°51'1 1.2
2014-Nov-01 02:29S 33°36' E 152°50'1 1.2
2014-Nov-01 01:26S 33°35' E 152°48'4 1.1
2014-Oct-31 21:26S 33°34' E 152°44'1 1.0
2014-Oct-31 20:32S 33°33' E 152°43'4 1.3
2014-Oct-31 17:26S 33°30' E 152°40'2 1.8
2014-Oct-31 16:32S 33°29' E 152°39'2 2.1
2014-Oct-31 15:32S 33°27' E 152°38'10 2.4
2014-Oct-31 11:20S 33°17' E 152°35'7 9.1
2014-Oct-31 10:33S 33°11' E 152°31'1212.2
2014-Oct-31 09:33S 33°00' E 152°24'1312.8
2014-Oct-31 08:33S 32°48' E 152°18'1414.3
2014-Oct-31 07:34S 32°39' E 152°31'1414.3
2014-Oct-31 06:34S 32°29' E 152°43'1513.8
2014-Oct-31 05:30S 32°16' E 152°51'1313.7
2014-Oct-31 04:33S 32°03' E 152°55'1313.5
2014-Oct-31 03:33S 31°51' E 153°01'1413.5
2014-Oct-31 02:33S 31°38' E 153°06'19113.5
2014-Oct-30 12:25S 28°30' E 153°46'1414.9
2014-Oct-30 11:28S 28°16' E 153°45'1314.4
2014-Oct-30 10:33S 28°03' E 153°43'1413.8
2014-Oct-30 09:34S 27°49' E 153°41'1414.1
2014-Oct-30 08:34S 27°35' E 153°42'1515.5
2014-Oct-30 07:34S 27°20' E 153°44'1514.8
2014-Oct-30 06:33S 27°05' E 153°45'1414.4
2014-Oct-30 05:33S 26°51' E 153°47'1413.9
2014-Oct-30 04:34S 26°37' E 153°49'1413.6
2014-Oct-30 03:32S 26°23' E 153°51'1313.6
2014-Oct-30 02:33S 26°10' E 153°53'1615.2
2014-Oct-30 01:31S 25°54' E 153°55'2914.7
2014-Oct-29 23:31S 25°25' E 153°58'1714.3
2014-Oct-29 22:21S 25°09' E 154°01'  

Dump ship's entire track history